createdAt,value
2018-01-17T00:00:44.794Z,985.71
2018-01-17T00:01:44.766Z,985.71
2018-01-17T00:02:44.755Z,985.65
2018-01-17T00:03:44.706Z,985.67
2018-01-17T00:04:44.673Z,985.60
2018-01-17T00:05:44.642Z,985.61
2018-01-17T00:06:44.615Z,985.56
2018-01-17T00:07:44.584Z,985.51
2018-01-17T00:08:44.552Z,985.52
2018-01-17T00:09:44.526Z,985.51
2018-01-17T00:10:44.494Z,985.51
2018-01-17T00:11:44.466Z,985.51
2018-01-17T00:12:44.433Z,985.50
2018-01-17T00:13:44.403Z,985.50
2018-01-17T00:14:44.380Z,985.47
2018-01-17T00:15:44.347Z,985.46
2018-01-17T00:16:44.308Z,985.45
2018-01-17T00:17:44.290Z,985.41
2018-01-17T00:18:44.255Z,985.39
2018-01-17T00:19:44.223Z,985.38
2018-01-17T00:20:44.199Z,985.38
2018-01-17T00:21:44.162Z,985.34
2018-01-17T00:22:44.137Z,985.35
2018-01-17T00:23:44.107Z,985.33
2018-01-17T00:24:44.075Z,985.31
2018-01-17T00:25:44.044Z,985.31
2018-01-17T00:26:44.020Z,985.25
2018-01-17T00:27:43.990Z,985.26
2018-01-17T00:28:43.958Z,985.24
2018-01-17T00:29:43.932Z,985.17
2018-01-17T00:30:43.900Z,985.17
2018-01-17T00:31:43.881Z,985.16
2018-01-17T00:32:43.838Z,985.14
2018-01-17T00:33:43.799Z,985.16
2018-01-17T00:34:43.790Z,985.16
2018-01-17T00:35:43.744Z,985.15
2018-01-17T00:36:43.717Z,985.18
2018-01-17T00:37:43.702Z,985.13
2018-01-17T00:38:43.660Z,985.08
2018-01-17T00:39:43.630Z,985.06
2018-01-17T00:40:43.595Z,985.02
2018-01-17T00:41:43.564Z,984.97
2018-01-17T00:42:43.540Z,984.94
2018-01-17T00:43:43.511Z,984.93
2018-01-17T00:44:43.478Z,984.93
2018-01-17T00:45:43.451Z,984.86
2018-01-17T00:46:43.417Z,984.86
2018-01-17T00:47:43.396Z,984.87
2018-01-17T00:48:43.364Z,984.85
2018-01-17T00:49:43.331Z,984.86
2018-01-17T00:50:43.295Z,984.87
2018-01-17T00:51:43.275Z,984.91
2018-01-17T00:52:43.238Z,984.88
2018-01-17T00:53:43.206Z,984.93
2018-01-17T00:54:43.182Z,984.89
2018-01-17T00:55:43.149Z,984.90
2018-01-17T00:56:43.123Z,984.87
2018-01-17T00:57:43.089Z,984.90
2018-01-17T00:58:43.063Z,984.92
2018-01-17T00:59:43.029Z,984.93
2018-01-17T01:00:43.004Z,984.95
2018-01-17T01:01:42.969Z,984.92
2018-01-17T01:02:42.942Z,984.95
2018-01-17T01:03:42.915Z,984.98
2018-01-17T01:04:42.880Z,984.96
2018-01-17T01:05:42.851Z,984.99
2018-01-17T01:06:42.819Z,985.02
2018-01-17T01:07:42.793Z,984.94
2018-01-17T01:08:42.764Z,984.95
2018-01-17T01:09:42.741Z,984.99
2018-01-17T01:10:42.700Z,984.97
2018-01-17T01:11:42.674Z,984.96
2018-01-17T01:12:42.643Z,984.92
2018-01-17T01:13:42.629Z,984.92
2018-01-17T01:14:42.584Z,984.92
2018-01-17T01:15:42.559Z,984.90
2018-01-17T01:16:42.522Z,984.89
2018-01-17T01:17:42.497Z,984.91
2018-01-17T01:18:42.463Z,984.86
2018-01-17T01:19:42.446Z,984.93
2018-01-17T01:20:42.407Z,984.93
2018-01-17T01:21:42.378Z,984.93
2018-01-17T01:22:42.343Z,985.00
2018-01-17T01:23:42.317Z,984.93
2018-01-17T01:24:42.288Z,985.01
2018-01-17T01:25:42.254Z,985.06
2018-01-17T01:26:42.230Z,985.03
2018-01-17T01:27:42.198Z,985.04
2018-01-17T01:28:42.171Z,985.02
2018-01-17T01:29:42.135Z,985.04
2018-01-17T01:30:42.110Z,985.02
2018-01-17T01:31:42.086Z,985.05
2018-01-17T01:32:42.052Z,985.08
2018-01-17T01:33:42.017Z,985.09
2018-01-17T01:34:41.992Z,985.11
2018-01-17T01:35:41.962Z,985.11
2018-01-17T01:36:41.930Z,985.15
2018-01-17T01:37:41.900Z,985.18
2018-01-17T01:38:41.871Z,985.10
2018-01-17T01:39:41.848Z,985.13
2018-01-17T01:40:41.811Z,985.19
2018-01-17T01:41:41.782Z,985.16
2018-01-17T01:42:41.755Z,985.13
2018-01-17T01:43:41.722Z,985.15
2018-01-17T01:44:41.698Z,985.06
2018-01-17T01:45:41.666Z,985.06
2018-01-17T01:46:41.631Z,985.13
2018-01-17T01:47:41.602Z,985.16
2018-01-17T01:48:41.571Z,985.26
2018-01-17T01:49:41.546Z,985.26
2018-01-17T01:50:41.508Z,985.37
2018-01-17T01:51:41.491Z,985.43
2018-01-17T01:52:41.454Z,985.35
2018-01-17T01:53:41.426Z,985.55
2018-01-17T01:54:41.392Z,985.46
2018-01-17T01:55:41.365Z,985.40
2018-01-17T01:56:41.336Z,985.50
2018-01-17T01:57:41.302Z,985.47
2018-01-17T01:58:41.271Z,985.46
2018-01-17T01:59:41.242Z,985.52
2018-01-17T02:00:41.215Z,985.43
2018-01-17T02:01:41.182Z,985.51
2018-01-17T02:02:41.153Z,985.53
2018-01-17T02:03:41.123Z,985.51
2018-01-17T02:04:41.090Z,985.52
2018-01-17T02:05:41.057Z,985.52
2018-01-17T02:06:41.030Z,985.54
2018-01-17T02:07:40.997Z,985.51
2018-01-17T02:08:40.969Z,985.48
2018-01-17T02:09:40.935Z,985.49
2018-01-17T02:10:40.910Z,985.50
2018-01-17T02:11:40.875Z,985.54
2018-01-17T02:12:40.847Z,985.54
2018-01-17T02:13:40.812Z,985.55
2018-01-17T02:14:40.787Z,985.53
2018-01-17T02:15:40.755Z,985.55
2018-01-17T02:16:40.736Z,985.47
2018-01-17T02:17:40.689Z,985.46
2018-01-17T02:18:40.677Z,985.40
2018-01-17T02:19:40.632Z,985.35
2018-01-17T02:20:40.605Z,985.38
2018-01-17T02:21:40.566Z,985.42
2018-01-17T02:22:40.541Z,985.38
2018-01-17T02:23:40.509Z,985.37
2018-01-17T02:24:40.476Z,985.37
2018-01-17T02:25:40.444Z,985.35
2018-01-17T02:26:40.418Z,985.32
2018-01-17T02:27:40.387Z,985.33
2018-01-17T02:28:40.354Z,985.32
2018-01-17T02:29:40.320Z,985.34
2018-01-17T02:30:40.292Z,985.30
2018-01-17T02:31:40.259Z,985.29
2018-01-17T02:32:40.231Z,985.25
2018-01-17T02:33:40.200Z,985.28
2018-01-17T02:34:40.171Z,985.29
2018-01-17T02:35:40.136Z,985.33
2018-01-17T02:36:40.105Z,985.33
2018-01-17T02:37:40.076Z,985.32
2018-01-17T02:38:40.042Z,985.32
2018-01-17T02:39:40.012Z,985.37
2018-01-17T02:40:39.981Z,985.37
2018-01-17T02:41:39.955Z,985.40
2018-01-17T02:42:39.915Z,985.41
2018-01-17T02:43:39.891Z,985.46
2018-01-17T02:44:39.864Z,985.40
2018-01-17T02:45:39.831Z,985.41
2018-01-17T02:46:39.802Z,985.41
2018-01-17T02:47:39.771Z,985.40
2018-01-17T02:48:39.741Z,985.43
2018-01-17T02:49:39.709Z,985.39
2018-01-17T02:50:39.669Z,985.45
2018-01-17T02:51:39.644Z,985.45
2018-01-17T02:52:39.616Z,985.44
2018-01-17T02:53:39.582Z,985.41
2018-01-17T02:54:39.555Z,985.45
2018-01-17T02:55:39.521Z,985.44
2018-01-17T02:56:39.500Z,985.43
2018-01-17T02:57:39.459Z,985.41
2018-01-17T02:58:39.432Z,985.45
2018-01-17T02:59:39.400Z,985.44
2018-01-17T03:00:39.371Z,985.50
2018-01-17T03:01:39.333Z,985.51
2018-01-17T03:02:39.306Z,985.54
2018-01-17T03:03:39.276Z,985.49
2018-01-17T03:04:39.249Z,985.50
2018-01-17T03:05:39.213Z,985.59
2018-01-17T03:06:39.187Z,985.58
2018-01-17T03:07:39.151Z,985.59
2018-01-17T03:08:39.120Z,985.64
2018-01-17T03:09:39.093Z,985.61
2018-01-17T03:10:39.062Z,985.57
2018-01-17T03:11:39.035Z,985.58
2018-01-17T03:12:39.000Z,985.56
2018-01-17T03:13:38.968Z,985.55
2018-01-17T03:14:38.940Z,985.58
2018-01-17T03:15:38.912Z,985.61
2018-01-17T03:16:38.877Z,985.61
2018-01-17T03:17:38.847Z,985.66
2018-01-17T03:18:38.817Z,985.69
2018-01-17T03:19:38.788Z,985.69
2018-01-17T03:20:38.761Z,985.65
2018-01-17T03:21:38.727Z,985.70
2018-01-17T03:22:38.694Z,985.76
2018-01-17T03:23:38.658Z,985.75
2018-01-17T03:24:38.633Z,985.71
2018-01-17T03:25:38.601Z,985.71
2018-01-17T03:26:38.573Z,985.75
2018-01-17T03:27:38.539Z,985.72
2018-01-17T03:28:38.512Z,985.70
2018-01-17T03:29:38.496Z,985.67
2018-01-17T03:30:38.445Z,985.63
2018-01-17T03:31:38.418Z,985.71
2018-01-17T03:32:38.392Z,985.70
2018-01-17T03:33:38.353Z,985.75
2018-01-17T03:34:38.327Z,985.75
2018-01-17T03:35:38.300Z,985.80
2018-01-17T03:36:38.283Z,985.81
2018-01-17T03:37:38.233Z,985.89
2018-01-17T03:38:38.202Z,985.84
2018-01-17T03:39:38.171Z,985.87
2018-01-17T03:40:38.152Z,985.91
2018-01-17T03:41:38.111Z,985.90
2018-01-17T03:42:38.083Z,985.95
2018-01-17T03:43:38.053Z,985.96
2018-01-17T03:44:38.017Z,985.92
2018-01-17T03:45:37.981Z,985.87
2018-01-17T03:46:37.965Z,985.86
2018-01-17T03:47:37.928Z,985.89
2018-01-17T03:48:37.892Z,985.90
2018-01-17T03:49:37.865Z,985.91
2018-01-17T03:50:37.831Z,985.91
2018-01-17T03:51:37.804Z,985.92
2018-01-17T03:52:37.772Z,985.97
2018-01-17T03:53:37.747Z,985.98
2018-01-17T03:54:37.707Z,985.92
2018-01-17T03:55:37.699Z,985.95
2018-01-17T03:56:37.650Z,985.94
2018-01-17T03:57:37.619Z,985.95
2018-01-17T03:58:37.585Z,985.98
2018-01-17T03:59:37.553Z,986.00
2018-01-17T04:00:37.529Z,985.98
2018-01-17T04:01:37.496Z,986.01
2018-01-17T04:02:37.464Z,986.01
2018-01-17T04:03:37.433Z,985.95
2018-01-17T04:04:37.407Z,985.96
2018-01-17T04:05:37.365Z,985.92
2018-01-17T04:06:37.347Z,985.89
2018-01-17T04:07:37.309Z,985.87
2018-01-17T04:08:37.280Z,985.89
2018-01-17T04:09:37.246Z,985.88
2018-01-17T04:10:37.221Z,985.92
2018-01-17T04:11:37.189Z,985.95
2018-01-17T04:12:37.154Z,985.96
2018-01-17T04:13:37.123Z,986.01
2018-01-17T04:14:37.096Z,986.03
2018-01-17T04:15:37.105Z,986.03
2018-01-17T04:16:37.035Z,986.03
2018-01-17T04:17:37.002Z,985.98
2018-01-17T04:18:36.971Z,986.01
2018-01-17T04:19:36.940Z,986.02
2018-01-17T04:20:36.912Z,986.06
2018-01-17T04:21:36.878Z,986.08
2018-01-17T04:22:36.858Z,986.09
2018-01-17T04:23:36.825Z,986.15
2018-01-17T04:24:36.787Z,986.11
2018-01-17T04:25:36.756Z,986.12
2018-01-17T04:26:36.730Z,986.14
2018-01-17T04:27:36.700Z,986.16
2018-01-17T04:28:36.665Z,986.19
2018-01-17T04:29:36.638Z,986.24
2018-01-17T04:30:36.603Z,986.22
2018-01-17T04:31:36.576Z,986.26
2018-01-17T04:32:36.541Z,986.30
2018-01-17T04:33:36.515Z,986.27
2018-01-17T04:34:36.478Z,986.30
2018-01-17T04:35:36.461Z,986.33
2018-01-17T04:36:36.420Z,986.30
2018-01-17T04:37:36.390Z,986.29
2018-01-17T04:38:36.362Z,986.34
2018-01-17T04:39:36.327Z,986.27
2018-01-17T04:40:36.301Z,986.32
2018-01-17T04:41:36.266Z,986.33
2018-01-17T04:42:36.242Z,986.37
2018-01-17T04:43:36.203Z,986.33
2018-01-17T04:44:36.181Z,986.33
2018-01-17T04:45:36.144Z,986.31
2018-01-17T04:46:36.113Z,986.37
2018-01-17T04:47:36.087Z,986.35
2018-01-17T04:48:36.053Z,986.36
2018-01-17T04:49:36.026Z,986.42
2018-01-17T04:50:35.992Z,986.44
2018-01-17T04:51:35.965Z,986.45
2018-01-17T04:52:35.928Z,986.48
2018-01-17T04:53:35.905Z,986.46
2018-01-17T04:54:35.867Z,986.48
2018-01-17T04:55:35.843Z,986.51
2018-01-17T04:56:35.809Z,986.55
2018-01-17T04:57:35.781Z,986.55
2018-01-17T04:58:35.747Z,986.55
2018-01-17T04:59:35.720Z,986.59
2018-01-17T05:00:35.686Z,986.62
2018-01-17T05:01:35.654Z,986.66
2018-01-17T05:02:35.628Z,986.66
2018-01-17T05:03:35.605Z,986.68
2018-01-17T05:04:35.563Z,986.71
2018-01-17T05:05:35.531Z,986.69
2018-01-17T05:06:35.513Z,986.67
2018-01-17T05:07:35.475Z,986.69
2018-01-17T05:08:35.438Z,986.76
2018-01-17T05:09:35.411Z,986.73
2018-01-17T05:10:35.383Z,986.71
2018-01-17T05:11:35.355Z,986.76
2018-01-17T05:12:35.321Z,986.75
2018-01-17T05:13:35.290Z,986.79
2018-01-17T05:14:35.260Z,986.80
2018-01-17T05:15:35.235Z,986.84
2018-01-17T05:16:35.196Z,986.88
2018-01-17T05:17:35.177Z,986.86
2018-01-17T05:18:35.138Z,986.91
2018-01-17T05:19:35.107Z,986.90
2018-01-17T05:20:35.074Z,986.94
2018-01-17T05:21:35.043Z,986.93
2018-01-17T05:22:35.016Z,986.96
2018-01-17T05:23:34.986Z,987.00
2018-01-17T05:24:34.946Z,986.97
2018-01-17T05:25:34.921Z,987.00
2018-01-17T05:26:34.895Z,986.98
2018-01-17T05:27:34.859Z,987.05
2018-01-17T05:28:34.831Z,987.05
2018-01-17T05:29:34.797Z,987.09
2018-01-17T05:30:34.768Z,987.08
2018-01-17T05:31:34.744Z,987.10
2018-01-17T05:32:34.702Z,987.06
2018-01-17T05:33:34.674Z,987.04
2018-01-17T05:34:34.648Z,987.06
2018-01-17T05:35:34.613Z,987.05
2018-01-17T05:36:34.585Z,987.14
2018-01-17T05:37:34.570Z,987.08
2018-01-17T05:38:34.525Z,987.07
2018-01-17T05:39:34.518Z,987.09
2018-01-17T05:40:34.463Z,987.09
2018-01-17T05:41:34.427Z,987.04
2018-01-17T05:42:34.400Z,987.09
2018-01-17T05:43:34.367Z,987.09
2018-01-17T05:44:34.368Z,987.10
2018-01-17T05:45:34.304Z,987.16
2018-01-17T05:46:34.279Z,987.10
2018-01-17T05:47:34.249Z,987.15
2018-01-17T05:48:34.219Z,987.16
2018-01-17T05:49:34.175Z,987.23
2018-01-17T05:50:34.156Z,987.20
2018-01-17T05:51:34.123Z,987.24
2018-01-17T05:52:34.087Z,987.26
2018-01-17T05:53:34.057Z,987.26
2018-01-17T05:54:34.031Z,987.30
2018-01-17T05:55:34.008Z,987.25
2018-01-17T05:56:33.966Z,987.20
2018-01-17T05:57:35.539Z,987.20
2018-01-17T05:58:33.929Z,987.27
2018-01-17T05:59:33.880Z,987.27
2018-01-17T06:00:33.843Z,987.34
2018-01-17T06:01:33.824Z,987.37
2018-01-17T06:02:33.781Z,987.38
2018-01-17T06:03:33.770Z,987.40
2018-01-17T06:04:33.724Z,987.43
2018-01-17T06:05:33.689Z,987.43
2018-01-17T06:06:33.659Z,987.46
2018-01-17T06:07:33.627Z,987.45
2018-01-17T06:08:33.603Z,987.52
2018-01-17T06:09:33.576Z,987.52
2018-01-17T06:10:33.535Z,987.51
2018-01-17T06:11:33.507Z,987.55
2018-01-17T06:12:33.478Z,987.63
2018-01-17T06:13:33.453Z,987.59
2018-01-17T06:14:33.417Z,987.66
2018-01-17T06:15:33.381Z,987.64
2018-01-17T06:16:33.356Z,987.63
2018-01-17T06:17:33.322Z,987.68
2018-01-17T06:18:33.290Z,987.68
2018-01-17T06:19:33.265Z,987.62
2018-01-17T06:20:33.224Z,987.69
2018-01-17T06:21:33.201Z,987.71
2018-01-17T06:22:33.161Z,987.67
2018-01-17T06:23:33.140Z,987.70
2018-01-17T06:24:33.104Z,987.73
2018-01-17T06:25:33.076Z,987.75
2018-01-17T06:26:33.042Z,987.77
2018-01-17T06:27:33.014Z,987.75
2018-01-17T06:28:32.982Z,987.81
2018-01-17T06:29:32.951Z,987.93
2018-01-17T06:30:32.922Z,987.86
2018-01-17T06:31:32.908Z,987.87
2018-01-17T06:32:32.859Z,987.91
2018-01-17T06:33:32.827Z,987.94
2018-01-17T06:34:32.802Z,987.89
2018-01-17T06:35:32.770Z,987.98
2018-01-17T06:36:32.736Z,988.00
2018-01-17T06:37:32.707Z,988.07
2018-01-17T06:38:32.676Z,988.09
2018-01-17T06:39:32.638Z,988.10
2018-01-17T06:40:32.614Z,988.06
2018-01-17T06:41:32.584Z,988.10
2018-01-17T06:42:32.552Z,988.19
2018-01-17T06:43:32.517Z,988.17
2018-01-17T06:44:32.490Z,988.20
2018-01-17T06:45:32.468Z,988.18
2018-01-17T06:46:32.427Z,988.21
2018-01-17T06:47:32.393Z,988.24
2018-01-17T06:48:32.366Z,988.26
2018-01-17T06:49:32.384Z,988.27
2018-01-17T06:50:32.300Z,988.29
2018-01-17T06:51:32.272Z,988.31
2018-01-17T06:52:32.240Z,988.34
2018-01-17T06:53:32.205Z,988.39
2018-01-17T06:54:32.182Z,988.43
2018-01-17T06:55:32.148Z,988.37
2018-01-17T06:56:32.121Z,988.41
2018-01-17T06:57:32.085Z,988.43
2018-01-17T06:58:32.057Z,988.47
2018-01-17T06:59:32.023Z,988.52
2018-01-17T07:00:31.998Z,988.57
2018-01-17T07:01:31.964Z,988.58
2018-01-17T07:02:31.933Z,988.61
2018-01-17T07:03:31.908Z,988.56
2018-01-17T07:04:31.872Z,988.61
2018-01-17T07:05:31.843Z,988.70
2018-01-17T07:06:31.811Z,988.66
2018-01-17T07:07:31.787Z,988.69
2018-01-17T07:08:31.747Z,988.72
2018-01-17T07:09:31.715Z,988.75
2018-01-17T07:10:31.688Z,988.73
2018-01-17T07:11:31.658Z,988.75
2018-01-17T07:12:31.627Z,988.79
2018-01-17T07:13:31.592Z,988.82
2018-01-17T07:14:31.565Z,988.84
2018-01-17T07:15:31.536Z,988.88
2018-01-17T07:16:31.500Z,988.87
2018-01-17T07:17:31.473Z,988.97
2018-01-17T07:18:31.444Z,988.97
2018-01-17T07:19:31.409Z,989.01
2018-01-17T07:20:31.382Z,989.00
2018-01-17T07:21:31.350Z,988.98
2018-01-17T07:22:31.342Z,989.01
2018-01-17T07:23:31.284Z,989.13
2018-01-17T07:24:31.256Z,989.12
2018-01-17T07:25:31.226Z,989.18
2018-01-17T07:26:31.219Z,989.21
2018-01-17T07:27:31.164Z,989.22
2018-01-17T07:28:31.128Z,989.22
2018-01-17T07:29:31.119Z,989.24
2018-01-17T07:30:31.075Z,989.19
2018-01-17T07:31:31.041Z,989.29
2018-01-17T07:32:31.010Z,989.29
2018-01-17T07:33:30.984Z,989.30
2018-01-17T07:34:30.956Z,989.31
2018-01-17T07:35:30.915Z,989.34
2018-01-17T07:36:30.892Z,989.37
2018-01-17T07:37:30.916Z,989.36
2018-01-17T07:38:30.841Z,989.31
2018-01-17T07:39:30.798Z,989.37
2018-01-17T07:40:30.762Z,989.41
2018-01-17T07:41:30.733Z,989.43
2018-01-17T07:42:30.699Z,989.45
2018-01-17T07:43:30.677Z,989.53
2018-01-17T07:44:30.640Z,989.57
2018-01-17T07:45:30.613Z,989.61
2018-01-17T07:46:30.575Z,989.52
2018-01-17T07:47:30.548Z,989.66
2018-01-17T07:48:30.514Z,989.65
2018-01-17T07:49:30.488Z,989.80
2018-01-17T07:50:30.455Z,989.71
2018-01-17T07:51:30.417Z,989.73
2018-01-17T07:52:30.402Z,989.78
2018-01-17T07:53:30.361Z,989.81
2018-01-17T07:54:30.332Z,989.89
2018-01-17T07:55:30.298Z,989.86
2018-01-17T07:56:30.265Z,989.88
2018-01-17T07:57:30.235Z,990.02
2018-01-17T07:58:30.202Z,989.98
2018-01-17T07:59:30.203Z,989.93
2018-01-17T08:00:30.148Z,989.93
2018-01-17T08:01:30.112Z,990.07
2018-01-17T08:02:30.083Z,990.04
2018-01-17T08:03:30.051Z,990.05
2018-01-17T08:04:30.027Z,990.11
2018-01-17T08:05:29.992Z,990.22
2018-01-17T08:06:29.957Z,990.19
2018-01-17T08:07:29.938Z,990.27
2018-01-17T08:08:29.902Z,990.29
2018-01-17T08:09:29.866Z,990.32
2018-01-17T08:10:29.839Z,990.21
2018-01-17T08:11:29.801Z,990.20
2018-01-17T08:12:29.774Z,990.29
2018-01-17T08:13:31.216Z,990.23
2018-01-17T08:14:31.714Z,990.27
2018-01-17T08:15:31.695Z,990.35
2018-01-17T08:16:29.646Z,990.34
2018-01-17T08:17:29.617Z,990.43
2018-01-17T08:18:29.599Z,990.42
2018-01-17T08:19:29.556Z,990.46
2018-01-17T08:20:29.519Z,990.44
2018-01-17T08:21:29.494Z,990.46
2018-01-17T08:22:29.464Z,990.51
2018-01-17T08:23:29.432Z,990.51
2018-01-17T08:24:29.393Z,990.56
2018-01-17T08:25:29.365Z,990.57
2018-01-17T08:26:29.355Z,990.58
2018-01-17T08:27:29.305Z,990.70
2018-01-17T08:28:29.267Z,990.67
2018-01-17T08:29:29.252Z,990.69
2018-01-17T08:30:29.212Z,990.73
2018-01-17T08:31:29.178Z,990.68
2018-01-17T08:32:29.151Z,990.74
2018-01-17T08:33:29.117Z,990.82
2018-01-17T08:34:29.084Z,990.80
2018-01-17T08:35:29.051Z,990.82
2018-01-17T08:36:29.021Z,990.95
2018-01-17T08:37:28.991Z,991.02
2018-01-17T08:38:28.962Z,991.08
2018-01-17T08:39:28.927Z,991.03
2018-01-17T08:40:28.897Z,991.02
2018-01-17T08:41:28.864Z,990.99
2018-01-17T08:42:28.836Z,991.06
2018-01-17T08:43:28.797Z,991.02
2018-01-17T08:44:28.780Z,991.01
2018-01-17T08:45:28.759Z,990.99
2018-01-17T08:46:28.706Z,991.01
2018-01-17T08:47:28.672Z,990.99
2018-01-17T08:48:28.642Z,990.95
2018-01-17T08:49:28.610Z,990.97
2018-01-17T08:50:28.580Z,990.99
2018-01-17T08:51:28.554Z,990.99
2018-01-17T08:52:28.517Z,990.97
2018-01-17T08:53:28.485Z,991.03
2018-01-17T08:54:28.454Z,991.05
2018-01-17T08:55:28.426Z,991.01
2018-01-17T08:56:28.404Z,991.02
2018-01-17T08:57:28.361Z,991.08
2018-01-17T08:58:28.328Z,991.09
2018-01-17T08:59:28.297Z,991.08
2018-01-17T09:00:28.268Z,991.11
2018-01-17T09:01:28.250Z,991.17
2018-01-17T09:02:28.204Z,991.24
2018-01-17T09:03:28.174Z,991.25
2018-01-17T09:04:28.145Z,991.27
2018-01-17T09:05:28.108Z,991.32
2018-01-17T09:06:28.077Z,991.36
2018-01-17T09:07:28.046Z,991.38
2018-01-17T09:08:28.019Z,991.37
2018-01-17T09:09:27.987Z,991.39
2018-01-17T09:10:27.957Z,991.37
2018-01-17T09:11:27.926Z,991.39
2018-01-17T09:12:27.892Z,991.43
2018-01-17T09:13:27.860Z,991.48
2018-01-17T09:14:27.828Z,991.49
2018-01-17T09:15:27.800Z,991.56
2018-01-17T09:16:27.771Z,991.53
2018-01-17T09:17:27.742Z,991.54
2018-01-17T09:18:27.711Z,991.55
2018-01-17T09:19:27.678Z,991.54
2018-01-17T09:20:27.644Z,991.53
2018-01-17T09:21:27.617Z,991.54
2018-01-17T09:22:27.581Z,991.52
2018-01-17T09:23:27.556Z,991.55
2018-01-17T09:24:27.519Z,991.50
2018-01-17T09:25:27.491Z,991.54
2018-01-17T09:26:27.454Z,991.53
2018-01-17T09:27:27.434Z,991.62
2018-01-17T09:28:27.404Z,991.63
2018-01-17T09:29:27.370Z,991.61
2018-01-17T09:30:27.335Z,991.59
2018-01-17T09:31:27.299Z,991.67
2018-01-17T09:32:27.274Z,991.74
2018-01-17T09:33:27.240Z,991.75
2018-01-17T09:34:27.224Z,991.71
2018-01-17T09:35:27.180Z,991.76
2018-01-17T09:36:27.147Z,991.75
2018-01-17T09:37:27.131Z,991.86
2018-01-17T09:38:27.088Z,991.83
2018-01-17T09:39:27.067Z,991.82
2018-01-17T09:40:27.025Z,991.89
2018-01-17T09:41:26.997Z,991.91
2018-01-17T09:42:26.956Z,991.92
2018-01-17T09:43:26.929Z,992.00
2018-01-17T09:44:26.908Z,992.00
2018-01-17T09:45:26.869Z,992.00
2018-01-17T09:46:26.835Z,992.01
2018-01-17T09:47:26.824Z,992.02
2018-01-17T09:48:26.777Z,992.02
2018-01-17T09:49:26.745Z,992.01
2018-01-17T09:50:26.721Z,991.99
2018-01-17T09:51:26.680Z,991.99
2018-01-17T09:52:26.645Z,992.04
2018-01-17T09:53:26.615Z,992.05
2018-01-17T09:54:26.590Z,992.07
2018-01-17T09:55:26.558Z,992.12
2018-01-17T09:56:26.526Z,992.23
2018-01-17T09:57:26.493Z,992.15
2018-01-17T09:58:26.464Z,992.13
2018-01-17T09:59:26.438Z,992.14
2018-01-17T10:00:26.405Z,992.21
2018-01-17T10:01:26.367Z,992.32
2018-01-17T10:02:26.340Z,992.26
2018-01-17T10:03:26.309Z,992.34
2018-01-17T10:04:26.283Z,992.27
2018-01-17T10:05:26.243Z,992.33
2018-01-17T10:06:26.215Z,992.32
2018-01-17T10:07:26.187Z,992.29
2018-01-17T10:08:26.153Z,992.28
2018-01-17T10:09:26.119Z,992.31
2018-01-17T10:10:26.090Z,992.35
2018-01-17T10:11:26.063Z,992.38
2018-01-17T10:12:26.025Z,992.34
2018-01-17T10:13:26.001Z,992.36
2018-01-17T10:14:25.975Z,992.38
2018-01-17T10:15:25.940Z,992.40
2018-01-17T10:16:25.915Z,992.43
2018-01-17T10:17:25.883Z,992.41
2018-01-17T10:18:25.846Z,992.40
2018-01-17T10:19:25.815Z,992.40
2018-01-17T10:20:25.783Z,992.38
2018-01-17T10:21:25.754Z,992.42
2018-01-17T10:22:25.722Z,992.43
2018-01-17T10:23:25.688Z,992.46
2018-01-17T10:24:25.660Z,992.48
2018-01-17T10:25:25.631Z,992.48
2018-01-17T10:26:25.597Z,992.51
2018-01-17T10:27:25.565Z,992.52
2018-01-17T10:28:25.538Z,992.56
2018-01-17T10:29:25.505Z,992.65
2018-01-17T10:30:25.474Z,992.65
2018-01-17T10:31:25.444Z,992.64
2018-01-17T10:32:25.418Z,992.63
2018-01-17T10:33:25.384Z,992.65
2018-01-17T10:34:25.360Z,992.66
2018-01-17T10:35:25.325Z,992.68
2018-01-17T10:36:25.294Z,992.67
2018-01-17T10:37:25.262Z,992.60
2018-01-17T10:38:25.232Z,992.70
2018-01-17T10:39:25.201Z,992.70
2018-01-17T10:40:25.172Z,992.70
2018-01-17T10:41:25.137Z,992.70
2018-01-17T10:42:25.118Z,992.66
2018-01-17T10:43:25.076Z,992.68
2018-01-17T10:44:25.053Z,992.61
2018-01-17T10:45:25.009Z,992.65
2018-01-17T10:46:24.990Z,992.61
2018-01-17T10:47:24.976Z,992.67
2018-01-17T10:48:24.925Z,992.64
2018-01-17T10:49:24.923Z,992.68
2018-01-17T10:50:24.866Z,992.75
2018-01-17T10:51:24.836Z,992.77
2018-01-17T10:52:24.807Z,992.72
2018-01-17T10:53:24.779Z,992.67
2018-01-17T10:54:24.740Z,992.75
2018-01-17T10:55:24.730Z,992.67
2018-01-17T10:56:24.680Z,992.63
2018-01-17T10:57:24.670Z,992.66
2018-01-17T10:58:24.634Z,992.60
2018-01-17T10:59:24.602Z,992.60
2018-01-17T11:00:24.558Z,992.61
2018-01-17T11:01:24.542Z,992.66
2018-01-17T11:02:24.498Z,992.70
2018-01-17T11:03:24.474Z,992.67
2018-01-17T11:04:24.443Z,992.68
2018-01-17T11:05:24.414Z,992.78
2018-01-17T11:06:24.388Z,992.71
2018-01-17T11:07:24.360Z,992.73
2018-01-17T11:08:24.322Z,992.75
2018-01-17T11:09:24.297Z,992.77
2018-01-17T11:10:24.267Z,992.81
2018-01-17T11:11:24.238Z,992.83
2018-01-17T11:12:24.205Z,992.80
2018-01-17T11:13:24.169Z,992.81
2018-01-17T11:14:24.145Z,992.80
2018-01-17T11:15:24.114Z,992.80
2018-01-17T11:16:24.080Z,992.88
2018-01-17T11:17:24.056Z,992.76
2018-01-17T11:18:24.023Z,992.73
2018-01-17T11:19:23.994Z,992.76
2018-01-17T11:20:23.965Z,992.81
2018-01-17T11:21:23.935Z,992.76
2018-01-17T11:22:23.907Z,992.78
2018-01-17T11:23:23.877Z,992.87
2018-01-17T11:24:23.843Z,992.81
2018-01-17T11:25:23.824Z,992.77
2018-01-17T11:26:23.784Z,992.82
2018-01-17T11:27:23.766Z,992.85
2018-01-17T11:28:23.727Z,992.83
2018-01-17T11:29:23.706Z,992.88
2018-01-17T11:30:23.666Z,992.87
2018-01-17T11:31:23.636Z,992.91
2018-01-17T11:32:23.606Z,992.98
2018-01-17T11:33:23.581Z,992.90
2018-01-17T11:34:23.549Z,992.91
2018-01-17T11:35:23.516Z,992.93
2018-01-17T11:36:23.485Z,992.96
2018-01-17T11:37:23.454Z,992.93
2018-01-17T11:38:23.508Z,992.89
2018-01-17T11:39:23.398Z,992.88
2018-01-17T11:40:23.365Z,992.97
2018-01-17T11:41:23.335Z,992.91
2018-01-17T11:42:23.312Z,992.96
2018-01-17T11:43:23.278Z,992.90
2018-01-17T11:44:23.273Z,992.86
2018-01-17T11:45:23.232Z,992.87
2018-01-17T11:46:23.197Z,992.86
2018-01-17T11:47:23.159Z,992.83
2018-01-17T11:48:23.144Z,992.80
2018-01-17T11:49:23.105Z,992.78
2018-01-17T11:50:23.087Z,992.79
2018-01-17T11:51:23.066Z,992.70
2018-01-17T11:52:23.016Z,992.82
2018-01-17T11:53:23.008Z,992.78
2018-01-17T11:54:22.966Z,992.78
2018-01-17T11:55:22.925Z,992.72
2018-01-17T11:56:22.892Z,992.75
2018-01-17T11:57:22.873Z,992.75
2018-01-17T11:58:22.825Z,992.76
2018-01-17T11:59:22.810Z,992.69
2018-01-17T12:00:22.820Z,992.77
2018-01-17T12:01:22.758Z,992.75
2018-01-17T12:02:22.722Z,992.77
2018-01-17T12:03:22.696Z,992.75
2018-01-17T12:04:22.652Z,992.80
2018-01-17T12:05:22.630Z,992.77
2018-01-17T12:06:22.616Z,992.84
2018-01-17T12:07:22.586Z,992.79
2018-01-17T12:08:22.561Z,992.73
2018-01-17T12:09:22.504Z,992.79
2018-01-17T12:10:22.482Z,992.75
2018-01-17T12:11:22.438Z,992.75
2018-01-17T12:12:22.448Z,992.81
2018-01-17T12:13:22.389Z,992.75
2018-01-17T12:14:22.365Z,992.74
2018-01-17T12:15:22.324Z,992.81
2018-01-17T12:16:22.295Z,992.73
2018-01-17T12:17:22.269Z,992.80
2018-01-17T12:18:22.265Z,992.76
2018-01-17T12:19:22.219Z,992.75
2018-01-17T12:20:22.185Z,992.77
2018-01-17T12:21:22.169Z,992.68
2018-01-17T12:22:22.125Z,992.88
2018-01-17T12:23:22.089Z,992.88
2018-01-17T12:24:22.073Z,992.96
2018-01-17T12:25:22.029Z,993.00
2018-01-17T12:26:21.991Z,992.93
2018-01-17T12:27:21.975Z,992.85
2018-01-17T12:28:21.957Z,992.82